Time;durP1;ratioP1;P1;durP2;ratioP2;P2;SDS_P1;SDS_P2;PMS_P1;PMS_P2;Temp;Humidity;BMP_temperature;BMP_pressure;BME280_temperature;BME280_humidity;BME280_pressure;Samples;Min_cycle;Max_cycle;Signal;HPM_P1;HPM_P2
2022/04/29 00:00:39;;;;;;;0.45;0.28;;;5.70;99.90;;;;;;5044231;28;20087;-67
2022/04/29 00:03:09;;;;;;;0.98;0.30;;;5.70;99.90;;;;;;5050762;28;20033;-67
2022/04/29 00:05:36;;;;;;;1.02;0.30;;;5.70;99.90;;;;;;5046764;28;20044;-67
2022/04/29 00:08:05;;;;;;;1.38;0.40;;;5.70;99.90;;;;;;5048595;28;20098;-67
2022/04/29 00:10:32;;;;;;;0.47;0.30;;;5.70;99.90;;;;;;5051484;28;20049;-67
2022/04/29 00:12:59;;;;;;;1.48;0.40;;;5.70;99.90;;;;;;5045343;28;20084;-66
2022/04/29 00:15:25;;;;;;;0.93;0.30;;;5.70;99.90;;;;;;5045955;28;20472;-67
2022/04/29 00:17:51;;;;;;;1.08;0.30;;;5.70;99.90;;;;;;5047594;28;20034;-66
2022/04/29 00:20:17;;;;;;;0.57;0.30;;;5.70;99.90;;;;;;5048421;28;20102;-66
2022/04/29 00:22:44;;;;;;;0.95;0.30;;;5.70;99.90;;;;;;5052017;28;20029;-67
2022/04/29 00:25:11;;;;;;;0.63;0.30;;;5.60;99.90;;;;;;5039907;28;20030;-66
2022/04/29 00:27:38;;;;;;;1.23;0.38;;;5.70;99.90;;;;;;5052887;28;20037;-66
2022/04/29 00:30:05;;;;;;;1.33;0.40;;;5.60;99.90;;;;;;5041589;28;20044;-66
2022/04/29 00:32:31;;;;;;;1.17;0.30;;;5.70;99.90;;;;;;5041189;28;20029;-66
2022/04/29 00:34:56;;;;;;;1.00;0.35;;;5.70;99.90;;;;;;5041309;28;20034;-66
2022/04/29 00:37:22;;;;;;;1.10;0.30;;;5.70;99.90;;;;;;5043901;28;20035;-66
2022/04/29 00:39:48;;;;;;;0.85;0.30;;;5.70;99.90;;;;;;5039347;28;20026;-68
2022/04/29 00:42:21;;;;;;;0.38;0.30;;;5.60;99.90;;;;;;5042011;28;20032;-67
2022/04/29 00:44:47;;;;;;;1.35;0.40;;;5.60;99.90;;;;;;5046515;28;20033;-68
2022/04/29 00:47:16;;;;;;;0.77;0.30;;;5.50;99.90;;;;;;5039499;28;20037;-67
2022/04/29 00:49:42;;;;;;;0.90;0.30;;;5.50;99.90;;;;;;5046950;28;20028;-67
2022/04/29 00:52:12;;;;;;;1.25;0.32;;;5.40;99.90;;;;;;5047744;28;20075;-68
2022/04/29 00:54:40;;;;;;;0.57;0.30;;;5.40;99.90;;;;;;5043721;28;20068;-68
2022/04/29 00:57:09;;;;;;;0.77;0.30;;;5.30;99.90;;;;;;5048712;28;20120;-68
2022/04/29 01:00:05;;;;;;;0.70;0.30;;;5.20;99.90;;;;;;5048313;28;20028;-67
2022/04/29 01:02:32;;;;;;;1.05;0.35;;;5.20;99.90;;;;;;5043971;28;20025;-67
2022/04/29 01:05:09;;;;;;;0.85;0.30;;;5.10;99.90;;;;;;5047588;28;20664;-67
2022/04/29 01:07:37;;;;;;;0.95;0.30;;;5.20;99.90;;;;;;5047637;28;20024;-68
2022/04/29 01:10:04;;;;;;;1.25;0.30;;;5.10;99.90;;;;;;5040627;28;20065;-67
2022/04/29 01:12:35;;;;;;;1.52;0.57;;;5.20;99.90;;;;;;5049769;28;20036;-69
2022/04/29 01:15:13;;;;;;;1.17;0.40;;;5.10;99.90;;;;;;5050800;28;20087;-67
2022/04/29 01:17:40;;;;;;;1.55;0.40;;;5.00;99.90;;;;;;5051467;28;20071;-67
2022/04/29 01:20:07;;;;;;;0.75;0.30;;;5.10;99.90;;;;;;5048725;28;20108;-67
2022/04/29 01:22:34;;;;;;;0.45;0.30;;;5.10;99.90;;;;;;5049604;28;20072;-67
2022/04/29 01:25:00;;;;;;;0.98;0.30;;;5.10;99.90;;;;;;5047913;28;20041;-67
2022/04/29 01:27:26;;;;;;;0.77;0.30;;;5.10;99.90;;;;;;5048120;28;20247;-67
2022/04/29 01:30:00;;;;;;;1.83;0.40;;;5.10;99.90;;;;;;5054192;28;20189;-67
2022/04/29 01:32:27;;;;;;;1.45;0.95;;;5.00;99.90;;;;;;5049450;28;20040;-67
2022/04/29 01:34:53;;;;;;;1.50;0.40;;;5.00;99.90;;;;;;5052088;28;20025;-66
2022/04/29 01:37:18;;;;;;;0.90;0.30;;;5.10;99.90;;;;;;5044494;28;20048;-68
2022/04/29 01:39:44;;;;;;;0.85;0.30;;;5.10;99.90;;;;;;5047942;28;20033;-67
2022/04/29 01:42:10;;;;;;;0.35;0.30;;;5.10;99.90;;;;;;5041153;28;20488;-67
2022/04/29 01:44:36;;;;;;;0.65;0.30;;;5.10;99.90;;;;;;5042552;28;20044;-67
2022/04/29 01:47:02;;;;;;;0.80;0.30;;;5.10;99.90;;;;;;5044036;28;20025;-67
2022/04/29 01:49:28;;;;;;;1.55;0.40;;;5.10;99.90;;;;;;5044286;28;20038;-67
2022/04/29 01:51:55;;;;;;;1.30;0.40;;;5.00;99.90;;;;;;5044599;28;20036;-67
2022/04/29 01:54:20;;;;;;;0.82;0.30;;;5.00;99.90;;;;;;5039229;28;20043;-67
2022/04/29 01:56:47;;;;;;;1.30;0.32;;;5.00;99.90;;;;;;5044604;28;20473;-67
2022/04/29 01:59:13;;;;;;;0.55;0.30;;;4.90;99.90;;;;;;5045941;28;20539;-67
2022/04/29 02:01:39;;;;;;;1.35;0.30;;;4.90;99.90;;;;;;5045629;28;20025;-67
2022/04/29 02:04:05;;;;;;;1.05;0.32;;;4.90;99.90;;;;;;5045531;28;20028;-66
2022/04/29 02:06:31;;;;;;;1.58;0.38;;;4.90;99.90;;;;;;5046817;28;20889;-67
2022/04/29 02:08:57;;;;;;;0.38;0.30;;;4.90;99.90;;;;;;5042872;28;20048;-67
2022/04/29 02:11:23;;;;;;;0.63;0.30;;;4.80;99.90;;;;;;5048605;28;20060;-67
2022/04/29 02:13:48;;;;;;;1.13;0.35;;;4.80;99.90;;;;;;5046012;28;20033;-67
2022/04/29 02:16:14;;;;;;;1.73;0.40;;;4.80;99.90;;;;;;5037048;28;20083;-67
2022/04/29 02:18:40;;;;;;;1.02;0.30;;;4.80;99.90;;;;;;5046019;28;20021;-67
2022/04/29 02:21:07;;;;;;;1.65;0.40;;;4.80;99.90;;;;;;5047546;28;20030;-67
2022/04/29 02:23:32;;;;;;;2.10;0.50;;;4.80;99.90;;;;;;5050888;28;20534;-67
2022/04/29 02:25:59;;;;;;;0.95;0.30;;;4.80;99.90;;;;;;5047895;28;20043;-67
2022/04/29 02:28:25;;;;;;;1.30;0.35;;;4.80;99.90;;;;;;5043230;28;20029;-67
2022/04/29 02:30:51;;;;;;;1.38;0.40;;;4.80;99.90;;;;;;5040712;28;20024;-67
2022/04/29 02:33:17;;;;;;;1.20;0.40;;;4.80;99.90;;;;;;5040179;28;20041;-67
2022/04/29 02:35:43;;;;;;;1.13;0.30;;;4.80;99.90;;;;;;5046424;28;20032;-67
2022/04/29 02:38:08;;;;;;;1.48;0.40;;;4.80;99.90;;;;;;5044105;28;20040;-67
2022/04/29 02:40:34;;;;;;;0.85;0.30;;;4.90;99.90;;;;;;5046499;28;20096;-67
2022/04/29 02:42:59;;;;;;;1.17;0.30;;;4.80;99.90;;;;;;5048586;28;20128;-67
2022/04/29 02:45:25;;;;;;;1.23;0.30;;;4.80;99.90;;;;;;5050337;28;20041;-66
2022/04/29 02:47:51;;;;;;;0.80;0.30;;;4.80;99.90;;;;;;5040712;28;20032;-67
2022/04/29 02:50:16;;;;;;;1.58;0.40;;;4.90;99.90;;;;;;5047256;28;20033;-67
2022/04/29 02:52:42;;;;;;;1.02;0.30;;;4.90;99.90;;;;;;5045896;28;20045;-67
2022/04/29 02:55:08;;;;;;;1.23;0.30;;;4.90;99.90;;;;;;5040457;28;20037;-65
2022/04/29 02:57:34;;;;;;;1.17;0.40;;;5.00;99.90;;;;;;5049008;28;20025;-66
2022/04/29 02:59:59;;;;;;;1.35;0.38;;;4.90;99.90;;;;;;5048193;28;20039;-66
2022/04/29 03:02:26;;;;;;;1.63;0.30;;;5.00;99.90;;;;;;5040998;28;20025;-66
2022/04/29 03:04:52;;;;;;;1.23;0.30;;;5.00;99.90;;;;;;5049917;28;20037;-66
2022/04/29 03:07:17;;;;;;;1.67;0.38;;;5.00;99.90;;;;;;5048820;28;20034;-66
2022/04/29 03:09:43;;;;;;;1.33;0.30;;;4.90;99.90;;;;;;5050233;28;20444;-66
2022/04/29 03:12:12;;;;;;;1.05;0.30;;;5.00;99.90;;;;;;5050684;28;20481;-66
2022/04/29 03:14:38;;;;;;;1.58;0.40;;;4.90;99.90;;;;;;5043305;28;20033;-66
2022/04/29 03:17:04;;;;;;;1.08;0.32;;;4.90;99.90;;;;;;5049831;28;20474;-67
2022/04/29 03:19:30;;;;;;;1.23;0.30;;;4.90;99.90;;;;;;5048152;28;20070;-66
2022/04/29 03:21:56;;;;;;;0.80;0.30;;;4.90;99.90;;;;;;5047738;28;20103;-67
2022/04/29 03:24:22;;;;;;;1.92;0.45;;;4.80;99.90;;;;;;5048365;28;20040;-66
2022/04/29 03:26:49;;;;;;;0.25;0.25;;;4.80;99.90;;;;;;5045828;28;20628;-66
2022/04/29 03:29:15;;;;;;;1.85;0.43;;;4.70;99.90;;;;;;5045075;28;20068;-66
2022/04/29 03:31:40;;;;;;;1.25;0.40;;;4.70;99.90;;;;;;5045403;28;20037;-66
2022/04/29 03:34:06;;;;;;;0.82;0.30;;;4.70;99.90;;;;;;5048259;28;20040;-66
2022/04/29 03:36:32;;;;;;;2.03;0.50;;;4.60;99.90;;;;;;5046561;28;20135;-66
2022/04/29 03:38:57;;;;;;;0.88;0.30;;;4.60;99.90;;;;;;5048005;28;20025;-67
2022/04/29 03:41:23;;;;;;;1.05;0.30;;;4.50;99.90;;;;;;5053747;28;20066;-66
2022/04/29 03:43:49;;;;;;;1.38;0.38;;;4.50;99.90;;;;;;5043914;28;20080;-67
2022/04/29 03:46:15;;;;;;;0.77;0.30;;;4.40;99.90;;;;;;5044732;28;20120;-66
2022/04/29 03:51:25;;;;;;;1.23;0.40;;;4.30;99.90;;;;;;5048687;28;20048;-67
2022/04/29 03:53:51;;;;;;;1.48;0.40;;;4.20;99.90;;;;;;5050902;28;20041;-67
2022/04/29 03:56:17;;;;;;;1.17;0.30;;;4.20;99.90;;;;;;5051240;28;20025;-66
2022/04/29 03:58:43;;;;;;;1.17;0.30;;;4.30;99.90;;;;;;5040531;28;20037;-66
2022/04/29 04:01:11;;;;;;;1.02;0.30;;;4.30;99.90;;;;;;5045430;28;20134;-66
2022/04/29 04:03:36;;;;;;;0.68;0.30;;;4.30;99.90;;;;;;5048453;28;20025;-67
2022/04/29 04:08:46;;;;;;;0.93;0.30;;;4.30;99.90;;;;;;5051901;28;20063;-66
2022/04/29 04:11:12;;;;;;;1.15;0.30;;;4.30;99.90;;;;;;5039124;28;20037;-67
2022/04/29 04:13:37;;;;;;;1.00;0.30;;;4.30;99.90;;;;;;5042248;28;20022;-66
2022/04/29 04:16:04;;;;;;;1.45;0.40;;;4.30;99.90;;;;;;5044458;28;20028;-67
2022/04/29 04:18:29;;;;;;;2.42;0.50;;;4.30;99.90;;;;;;5037421;28;20108;-67
2022/04/29 04:20:55;;;;;;;0.93;0.30;;;4.40;99.90;;;;;;5043783;28;20063;-66
2022/04/29 04:23:21;;;;;;;1.20;0.30;;;4.50;99.90;;;;;;5054023;28;20472;-66
2022/04/29 04:25:46;;;;;;;1.45;0.40;;;4.50;99.90;;;;;;5046922;28;20520;-66
2022/04/29 04:28:13;;;;;;;1.55;0.40;;;4.40;99.90;;;;;;5041249;28;20026;-66
2022/04/29 04:30:39;;;;;;;1.33;0.40;;;4.50;99.90;;;;;;5049677;28;20115;-67
2022/04/29 04:33:05;;;;;;;1.25;0.30;;;4.50;99.90;;;;;;5039745;28;20042;-67
2022/04/29 04:35:31;;;;;;;1.20;0.30;;;4.60;99.90;;;;;;5042560;28;20647;-67
2022/04/29 04:37:56;;;;;;;1.10;0.30;;;4.70;99.90;;;;;;5031234;28;20018;-67
2022/04/29 04:40:22;;;;;;;1.02;0.30;;;4.80;99.90;;;;;;5051990;28;20029;-67
2022/04/29 04:42:48;;;;;;;0.93;0.30;;;4.90;99.90;;;;;;5045290;28;20656;-66
2022/04/29 04:45:14;;;;;;;0.93;0.30;;;5.00;99.90;;;;;;5062594;28;20057;-66
2022/04/29 04:47:40;;;;;;;1.23;0.40;;;5.10;99.90;;;;;;5046414;28;20115;-66
2022/04/29 04:50:06;;;;;;;1.05;0.30;;;5.20;99.90;;;;;;5045555;28;20040;-66
2022/04/29 04:52:32;;;;;;;1.58;0.40;;;5.30;99.90;;;;;;5046555;28;20535;-65
2022/04/29 04:54:58;;;;;;;1.17;0.40;;;5.40;99.90;;;;;;5049896;28;20029;-66
2022/04/29 04:57:23;;;;;;;1.20;0.40;;;5.50;99.90;;;;;;5051009;28;20044;-66
2022/04/29 04:59:49;;;;;;;1.45;0.40;;;5.60;99.90;;;;;;5049399;28;20084;-66
2022/04/29 05:02:15;;;;;;;0.68;0.30;;;5.70;99.90;;;;;;5044780;28;20026;-66
2022/04/29 05:04:40;;;;;;;1.13;0.40;;;5.80;99.90;;;;;;5051549;28;20068;-67
2022/04/29 05:07:06;;;;;;;1.08;0.32;;;5.90;99.90;;;;;;5051898;28;20031;-67
2022/04/29 05:09:32;;;;;;;1.52;0.40;;;6.00;99.90;;;;;;5048466;28;20045;-67
2022/04/29 05:11:57;;;;;;;1.55;0.40;;;6.10;99.90;;;;;;5047333;28;20029;-67
2022/04/29 05:14:23;;;;;;;1.42;0.57;;;6.20;99.90;;;;;;5048579;28;20040;-67
2022/04/29 05:16:49;;;;;;;1.77;0.40;;;6.40;99.90;;;;;;5049669;28;20414;-67
2022/04/29 05:19:15;;;;;;;0.80;0.30;;;6.50;99.90;;;;;;5041698;28;20059;-66
2022/04/29 05:21:40;;;;;;;1.55;0.40;;;6.60;99.90;;;;;;5039675;28;20030;-67
2022/04/29 05:24:06;;;;;;;0.65;0.30;;;6.60;99.90;;;;;;5046916;28;20029;-67
2022/04/29 05:26:32;;;;;;;1.05;0.30;;;6.70;99.90;;;;;;5047520;28;20509;-67
2022/04/29 05:28:58;;;;;;;1.48;0.40;;;6.90;99.90;;;;;;5046488;28;20041;-67
2022/04/29 05:31:24;;;;;;;0.93;0.30;;;7.00;99.90;;;;;;5050188;28;20069;-67
2022/04/29 05:33:50;;;;;;;1.25;0.40;;;7.10;99.90;;;;;;5046830;28;20039;-66
2022/04/29 05:36:16;;;;;;;1.40;0.40;;;7.20;99.90;;;;;;5048812;28;20107;-67
2022/04/29 05:44:11;;;;;;;1.20;0.30;;;7.50;99.90;;;;;;5043422;28;20044;-67
2022/04/29 05:46:37;;;;;;;1.20;0.40;;;7.50;99.90;;;;;;5044740;28;20021;-66
2022/04/29 05:49:04;;;;;;;0.43;0.28;;;7.50;99.90;;;;;;5037437;28;20025;-67
2022/04/29 05:51:29;;;;;;;1.17;0.40;;;7.60;99.90;;;;;;5045589;28;20075;-66
2022/04/29 05:53:55;;;;;;;0.93;0.32;;;7.70;99.90;;;;;;5066788;28;20063;-66
2022/04/29 05:56:21;;;;;;;0.85;0.30;;;7.60;99.90;;;;;;5044455;28;20041;-66
2022/04/29 05:58:46;;;;;;;0.82;0.30;;;7.70;99.90;;;;;;5048649;28;20032;-66
2022/04/29 06:01:12;;;;;;;0.98;0.30;;;7.80;99.90;;;;;;5047189;28;20025;-67
2022/04/29 06:03:38;;;;;;;0.35;0.30;;;7.90;99.90;;;;;;5046246;28;20078;-67
2022/04/29 06:06:04;;;;;;;0.63;0.30;;;8.00;99.90;;;;;;5062505;28;20052;-66
2022/04/29 06:08:29;;;;;;;0.77;0.30;;;8.00;99.90;;;;;;5046692;28;20040;-67
2022/04/29 06:10:55;;;;;;;1.05;0.38;;;8.00;99.90;;;;;;5047696;28;20041;-66
2022/04/29 06:13:21;;;;;;;1.30;0.65;;;8.10;99.90;;;;;;5055357;28;20033;-66
2022/04/29 06:15:46;;;;;;;1.08;0.32;;;8.10;99.90;;;;;;5055854;28;20040;-66
2022/04/29 06:18:12;;;;;;;1.05;0.32;;;8.20;99.90;;;;;;5059630;28;20629;-66
2022/04/29 06:20:38;;;;;;;0.57;0.30;;;8.30;99.90;;;;;;5053081;28;20024;-66
2022/04/29 06:23:04;;;;;;;0.20;0.20;;;8.30;99.90;;;;;;5053065;28;20049;-66
2022/04/29 06:25:29;;;;;;;0.30;0.30;;;8.40;99.90;;;;;;5056151;28;20037;-67
2022/04/29 06:27:55;;;;;;;0.32;0.30;;;8.40;99.90;;;;;;5051136;28;20508;-66
2022/04/29 06:30:21;;;;;;;1.70;0.40;;;8.50;99.90;;;;;;5049208;28;20171;-65
2022/04/29 06:32:47;;;;;;;1.02;0.38;;;8.60;99.90;;;;;;5051070;28;20478;-66
2022/04/29 06:35:13;;;;;;;0.28;0.25;;;8.70;99.90;;;;;;5051252;28;20547;-65
2022/04/29 06:37:39;;;;;;;1.48;0.40;;;8.70;99.90;;;;;;5049452;28;20030;-65
2022/04/29 06:40:06;;;;;;;0.57;0.30;;;8.70;99.90;;;;;;5052129;28;20052;-66
2022/04/29 06:42:41;;;;;;;0.82;0.40;;;8.90;99.90;;;;;;5047548;28;20037;-64
2022/04/29 06:45:08;;;;;;;0.65;0.30;;;9.00;99.90;;;;;;5067141;28;20034;-65
2022/04/29 06:47:34;;;;;;;0.68;0.30;;;9.10;99.90;;;;;;5046452;28;20035;-66
2022/04/29 06:50:00;;;;;;;0.35;0.20;;;9.20;99.90;;;;;;5045552;28;20049;-65
2022/04/29 06:52:25;;;;;;;0.88;0.40;;;9.30;99.90;;;;;;5044147;28;20025;-65
2022/04/29 06:54:51;;;;;;;0.52;0.30;;;9.30;99.90;;;;;;5046130;28;20508;-66
2022/04/29 06:57:16;;;;;;;0.75;0.30;;;9.40;99.90;;;;;;5044037;28;20474;-66
2022/04/29 06:59:42;;;;;;;1.02;0.30;;;9.50;99.90;;;;;;5049739;28;20036;-65
2022/04/29 07:02:08;;;;;;;0.88;0.30;;;9.60;99.90;;;;;;5058902;28;20036;-66
2022/04/29 07:04:34;;;;;;;0.95;0.30;;;9.60;99.90;;;;;;5061014;28;20041;-75
2022/04/29 07:07:00;;;;;;;0.30;0.20;;;9.70;99.90;;;;;;5048786;28;20059;-76
2022/04/29 07:09:26;;;;;;;1.13;0.30;;;9.70;99.90;;;;;;5042483;28;20045;-65
2022/04/29 07:11:51;;;;;;;0.75;0.30;;;9.60;99.90;;;;;;5060175;28;20049;-65
2022/04/29 07:14:18;;;;;;;1.13;0.30;;;9.70;99.90;;;;;;5043439;28;20490;-65
2022/04/29 07:16:44;;;;;;;0.50;0.28;;;9.90;99.90;;;;;;5052642;28;20033;-66
2022/04/29 07:19:10;;;;;;;1.02;0.32;;;9.80;99.90;;;;;;5049300;28;20036;-65
2022/04/29 07:21:35;;;;;;;0.28;0.22;;;10.00;99.90;;;;;;5048275;28;20073;-65
2022/04/29 07:24:01;;;;;;;0.98;0.32;;;9.90;99.90;;;;;;5045648;28;20490;-66
2022/04/29 07:26:26;;;;;;;0.70;0.30;;;10.10;99.90;;;;;;5046697;28;20041;-66
2022/04/29 07:28:52;;;;;;;0.38;0.30;;;10.20;99.90;;;;;;5041692;28;20374;-65
2022/04/29 07:31:18;;;;;;;0.80;0.30;;;10.20;99.90;;;;;;5046157;28;20044;-65
2022/04/29 07:33:43;;;;;;;0.52;0.28;;;10.40;99.90;;;;;;5045543;28;20017;-66
2022/04/29 07:41:45;;;;;;;0.47;0.30;;;10.60;99.90;;;;;;5046234;28;20048;-65
2022/04/29 07:44:15;;;;;;;0.90;0.30;;;10.60;99.90;;;;;;5043080;28;20089;-65
2022/04/29 07:46:43;;;;;;;0.88;0.30;;;10.90;99.90;;;;;;5046235;28;20068;-66
2022/04/29 07:49:09;;;;;;;0.93;0.40;;;11.00;99.90;;;;;;5052844;28;20183;-65
2022/04/29 07:51:35;;;;;;;0.40;0.20;;;11.30;99.90;;;;;;5046351;28;20025;-66
2022/04/29 07:54:01;;;;;;;0.85;0.30;;;11.20;99.90;;;;;;5039209;28;20029;-65
2022/04/29 07:56:26;;;;;;;0.50;0.30;;;11.10;99.90;;;;;;5045958;28;20098;-66
2022/04/29 07:58:52;;;;;;;0.35;0.20;;;11.70;99.90;;;;;;5044092;28;20056;-67
2022/04/29 08:01:18;;;;;;;0.55;0.32;;;12.20;99.90;;;;;;5050101;28;20037;-67
2022/04/29 08:03:44;;;;;;;0.47;0.22;;;12.00;99.90;;;;;;5045099;28;20112;-67
2022/04/29 08:06:09;;;;;;;0.45;0.30;;;12.20;99.90;;;;;;5056152;28;20193;-67
2022/04/29 08:08:37;;;;;;;0.50;0.20;;;12.50;99.90;;;;;;5049938;28;20024;-67
2022/04/29 08:11:03;;;;;;;0.20;0.20;;;12.70;99.90;;;;;;5055130;28;20102;-65
2022/04/29 08:13:30;;;;;;;0.47;0.22;;;13.20;99.90;;;;;;5062514;28;20230;-66
2022/04/29 08:15:58;;;;;;;0.65;0.30;;;13.50;99.90;;;;;;5050900;28;20097;-66
2022/04/29 08:18:25;;;;;;;0.90;0.30;;;14.20;99.90;;;;;;5057845;28;20035;-65
2022/04/29 08:20:52;;;;;;;0.50;0.20;;;14.40;99.90;;;;;;5041236;28;20044;-65
2022/04/29 08:23:17;;;;;;;0.35;0.20;;;15.10;99.90;;;;;;5045409;28;20032;-65
2022/04/29 08:25:43;;;;;;;0.40;0.20;;;16.00;99.90;;;;;;5052585;28;20034;-64
2022/04/29 08:28:09;;;;;;;0.73;0.30;;;16.20;92.70;;;;;;5040864;28;20035;-65
2022/04/29 08:30:34;;;;;;;0.65;0.32;;;16.00;86.90;;;;;;5041122;28;20391;-65
2022/04/29 08:33:00;;;;;;;0.68;0.30;;;15.70;93.90;;;;;;5040765;28;20036;-65
2022/04/29 08:35:28;;;;;;;0.35;0.20;;;15.30;86.40;;;;;;5042469;28;20081;-65
2022/04/29 08:38:00;;;;;;;0.63;0.30;;;15.60;93.90;;;;;;5041099;28;20056;-65
2022/04/29 08:40:27;;;;;;;1.45;0.70;;;15.30;98.50;;;;;;5053994;28;20032;-65
2022/04/29 08:42:55;;;;;;;0.80;0.40;;;15.00;96.00;;;;;;5041400;28;20024;-65
2022/04/29 08:45:21;;;;;;;0.20;0.20;;;15.00;99.90;;;;;;5040731;28;20067;-65
2022/04/29 08:47:47;;;;;;;0.22;0.20;;;14.00;95.70;;;;;;5049089;28;20037;-66
2022/04/29 08:50:16;;;;;;;0.40;0.20;;;14.10;99.20;;;;;;5058240;28;20091;-65
2022/04/29 08:52:42;;;;;;;0.32;0.20;;;13.50;99.30;;;;;;5061462;28;20135;-65
2022/04/29 09:00:41;;;;;;;0.77;0.30;;;13.60;99.90;;;;;;5054469;28;20032;-65
2022/04/29 09:03:21;;;;;;;0.22;0.20;;;13.30;99.90;;;;;;5048620;28;20229;-65
2022/04/29 09:05:50;;;;;;;0.28;0.20;;;13.20;99.90;;;;;;5050314;28;20064;-65
2022/04/29 09:08:20;;;;;;;0.85;0.30;;;13.30;99.90;;;;;;5057812;28;20448;-64
2022/04/29 09:10:54;;;;;;;0.32;0.20;;;13.40;99.90;;;;;;5055749;28;20510;-65
2022/04/29 09:13:24;;;;;;;0.52;0.20;;;13.10;99.90;;;;;;5046792;28;20029;-65
2022/04/29 09:16:04;;;;;;;0.40;0.22;;;12.90;99.90;;;;;;5050125;28;20055;-65
2022/04/29 09:18:44;;;;;;;0.47;0.20;;;12.80;99.90;;;;;;5053125;28;20062;-66
2022/04/29 09:21:09;;;;;;;0.47;0.28;;;13.10;99.90;;;;;;5048203;28;20029;-65
2022/04/29 09:23:56;;;;;;;0.77;0.30;;;13.00;99.90;;;;;;5053991;28;20041;-64
2022/04/29 09:26:25;;;;;;;0.52;0.22;;;13.00;99.90;;;;;;5054824;28;20041;-65
2022/04/29 09:28:53;;;;;;;0.73;0.30;;;13.10;99.90;;;;;;5045206;28;20026;-64
2022/04/29 09:31:19;;;;;;;1.08;0.50;;;13.20;99.90;;;;;;5051534;28;20043;-76
2022/04/29 09:33:54;;;;;;;0.28;0.20;;;13.40;99.90;;;;;;5041712;28;20364;-69
2022/04/29 09:36:26;;;;;;;0.82;0.30;;;13.50;99.90;;;;;;5043670;28;20021;-67
2022/04/29 09:41:56;;;;;;;0.40;0.20;;;14.10;99.90;;;;;;5044992;28;20409;-68
2022/04/29 09:44:32;;;;;;;0.68;0.28;;;14.40;99.90;;;;;;5044830;28;20026;-67
2022/04/29 09:47:22;;;;;;;0.57;0.20;;;14.40;99.50;;;;;;5056751;28;20025;-68
2022/04/29 09:49:55;;;;;;;0.73;0.25;;;14.30;99.90;;;;;;5059744;28;20036;-67
2022/04/29 09:52:23;;;;;;;0.73;0.30;;;14.00;99.90;;;;;;5047439;28;20083;-68
2022/04/29 09:54:50;;;;;;;0.95;0.45;;;13.90;99.90;;;;;;5051516;28;20535;-67
2022/04/29 09:57:23;;;;;;;0.65;0.30;;;14.00;99.90;;;;;;5060709;28;20085;-68
2022/04/29 09:59:54;;;;;;;0.10;0.10;;;13.80;99.90;;;;;;5045648;28;20021;-67
2022/04/29 10:02:23;;;;;;;0.38;0.20;;;13.50;99.90;;;;;;5054112;28;20028;-68
2022/04/29 10:04:50;;;;;;;1.00;0.30;;;13.50;99.90;;;;;;5055753;28;20037;-68
2022/04/29 10:07:20;;;;;;;0.52;0.35;;;13.40;99.90;;;;;;5054593;28;20051;-65
2022/04/29 10:09:48;;;;;;;0.75;0.30;;;13.30;99.90;;;;;;5045230;28;20045;-66
2022/04/29 10:12:16;;;;;;;0.50;0.20;;;13.30;99.90;;;;;;5048727;28;21993;-65
2022/04/29 10:14:43;;;;;;;0.45;0.20;;;13.20;99.90;;;;;;5047751;28;20020;-65
2022/04/29 10:22:51;;;;;;;;;;;12.90;99.90;;;;;;5044105;28;20103;-65
2022/04/29 10:25:22;;;;;;;1.52;0.90;;;12.70;99.90;;;;;;5051933;28;20003;-64
2022/04/29 10:27:52;;;;;;;0.52;0.20;;;12.90;99.90;;;;;;5050337;28;20027;-64
2022/04/29 10:30:35;;;;;;;5.25;0.85;;;12.90;99.90;;;;;;5045062;28;20026;-64
2022/04/29 10:33:06;;;;;;;0.28;0.20;;;13.00;99.90;;;;;;5048803;28;20033;-65
2022/04/29 10:35:42;;;;;;;0.80;0.30;;;13.00;99.90;;;;;;5054330;28;20077;-65
2022/04/29 10:38:37;;;;;;;0.20;0.20;;;12.70;99.90;;;;;;5054282;28;20072;-64
2022/04/29 10:41:30;;;;;;;0.52;0.20;;;12.80;99.90;;;;;;5049511;28;20036;-65
2022/04/29 10:43:59;;;;;;;0.30;0.20;;;12.80;99.90;;;;;;5057960;28;20110;-65
2022/04/29 10:46:36;;;;;;;0.55;0.28;;;12.80;99.90;;;;;;5045758;28;20194;-65
2022/04/29 10:49:28;;;;;;;0.35;0.20;;;12.70;99.90;;;;;;5045267;28;20036;-65
2022/04/29 10:52:28;;;;;;;0.57;0.30;;;12.50;99.90;;;;;;5049164;28;20068;-64
2022/04/29 10:54:58;;;;;;;0.93;0.55;;;12.40;99.90;;;;;;5052815;28;20033;-67
2022/04/29 10:57:40;;;;;;;0.90;0.40;;;12.30;99.90;;;;;;5054095;28;20033;-64
2022/04/29 11:00:11;;;;;;;1.08;0.52;;;12.20;99.90;;;;;;5046185;28;20032;-65
2022/04/29 11:02:37;;;;;;;0.20;0.20;;;12.40;99.90;;;;;;5053447;28;20039;-65
2022/04/29 11:05:03;;;;;;;0.40;0.20;;;12.40;99.90;;;;;;5056857;28;20116;-64
2022/04/29 11:07:45;;;;;;;0.38;0.20;;;12.60;99.90;;;;;;5043406;28;20366;-65
2022/04/29 11:10:19;;;;;;;0.57;0.30;;;12.60;99.90;;;;;;5051811;28;20101;-65
2022/04/29 11:13:05;;;;;;;0.35;0.35;;;12.50;99.90;;;;;;5049832;28;20033;-64
2022/04/29 11:15:45;;;;;;;0.70;0.40;;;12.50;99.90;;;;;;5042622;28;20033;-65
2022/04/29 11:18:15;;;;;;;1.92;0.63;;;12.50;99.90;;;;;;5053642;28;20033;-65
2022/04/29 11:20:44;;;;;;;0.38;0.20;;;12.60;99.90;;;;;;5058730;28;20048;-64
2022/04/29 11:26:00;;;;;;;0.75;0.30;;;13.10;99.90;;;;;;5063476;28;20083;-65
2022/04/29 11:28:30;;;;;;;0.47;0.20;;;12.90;99.90;;;;;;5053427;28;20044;-65
2022/04/29 11:31:02;;;;;;;0.70;0.30;;;13.20;99.90;;;;;;5050131;28;20043;-65
2022/04/29 11:33:28;;;;;;;0.38;0.20;;;13.70;99.90;;;;;;5053721;28;20040;-65
2022/04/29 11:36:10;;;;;;;0.63;0.30;;;13.50;99.90;;;;;;5059325;28;21203;-65
2022/04/29 11:38:54;;;;;;;0.47;0.20;;;13.80;99.90;;;;;;5044114;28;20037;-66
2022/04/29 11:41:27;;;;;;;0.40;0.20;;;13.70;99.90;;;;;;5057754;28;20036;-65
2022/04/29 11:43:53;;;;;;;0.20;0.20;;;13.60;99.90;;;;;;5048503;28;20499;-65
2022/04/29 11:46:20;;;;;;;0.50;0.28;;;13.70;99.90;;;;;;5060098;28;20045;-65
2022/04/29 11:49:00;;;;;;;0.65;0.28;;;13.60;99.90;;;;;;5052461;28;20021;-65
2022/04/29 11:51:27;;;;;;;0.60;0.20;;;13.90;99.90;;;;;;5056944;28;20033;-65
2022/04/29 11:53:56;;;;;;;0.20;0.20;;;13.70;99.90;;;;;;5053133;28;20024;-65
2022/04/29 11:56:30;;;;;;;1.20;0.65;;;13.80;99.90;;;;;;5061510;28;20147;-65
2022/04/29 11:58:55;;;;;;;0.98;0.38;;;14.00;99.90;;;;;;5061140;28;20051;-65
2022/04/29 12:01:22;;;;;;;0.47;0.20;;;13.90;99.90;;;;;;5056824;28;20044;-64
2022/04/29 12:03:48;;;;;;;0.28;0.20;;;13.80;99.90;;;;;;5046590;28;20025;-64
2022/04/29 12:06:13;;;;;;;1.17;0.40;;;14.20;99.90;;;;;;5057841;28;20200;-65
2022/04/29 12:08:39;;;;;;;0.40;0.20;;;14.10;99.90;;;;;;5061775;28;20017;-63
2022/04/29 12:11:05;;;;;;;0.50;0.28;;;13.90;99.90;;;;;;5057328;28;20029;-65
2022/04/29 12:13:31;;;;;;;0.25;0.25;;;13.80;99.90;;;;;;5057120;28;20021;-65
2022/04/29 12:15:57;;;;;;;0.77;0.30;;;14.00;99.90;;;;;;5052509;28;20067;-65
2022/04/29 12:18:40;;;;;;;0.65;0.40;;;13.80;99.90;;;;;;5051249;28;20033;-65
2022/04/29 12:21:06;;;;;;;0.65;0.30;;;13.70;99.90;;;;;;5048628;28;20024;-65
2022/04/29 12:23:33;;;;;;;0.90;0.30;;;13.70;99.90;;;;;;5054466;28;20079;-63
2022/04/29 12:26:01;;;;;;;0.30;0.20;;;13.90;99.90;;;;;;5046715;28;20046;-64
2022/04/29 12:28:28;;;;;;;0.25;0.20;;;14.20;99.90;;;;;;5046779;28;20024;-63
2022/04/29 12:36:57;;;;;;;0.43;0.20;;;13.60;99.90;;;;;;5044964;28;20052;-65
2022/04/29 12:39:34;;;;;;;1.20;0.50;;;13.80;99.90;;;;;;5050117;28;20013;-64
2022/04/29 12:42:02;;;;;;;0.28;0.20;;;13.70;99.90;;;;;;5043831;28;20651;-64
2022/04/29 12:47:38;;;;;;;0.55;0.30;;;13.80;99.90;;;;;;5056563;28;20041;-64
2022/04/29 12:50:40;;;;;;;0.57;0.20;;;13.70;99.90;;;;;;5060122;28;20093;-65
2022/04/29 12:53:14;;;;;;;0.38;0.20;;;13.40;99.90;;;;;;5050507;28;20025;-65
2022/04/29 12:55:43;;;;;;;0.52;0.20;;;13.80;99.90;;;;;;5058388;28;20092;-65
2022/04/29 12:58:15;;;;;;;0.60;0.20;;;13.90;99.90;;;;;;5059134;28;20025;-65
2022/04/29 13:00:48;;;;;;;0.20;0.20;;;14.20;99.90;;;;;;5057445;28;20024;-64
2022/04/29 13:03:22;;;;;;;0.55;0.30;;;14.10;99.60;;;;;;5050676;28;20025;-65
2022/04/29 13:05:49;;;;;;;0.20;0.20;;;14.10;99.90;;;;;;5060808;28;20055;-65
2022/04/29 13:08:15;;;;;;;0.25;0.20;;;14.90;99.10;;;;;;5049280;28;20037;-64
2022/04/29 13:10:46;;;;;;;0.90;0.30;;;15.00;96.60;;;;;;5041975;28;20525;-65
2022/04/29 13:13:15;;;;;;;3.17;0.60;;;14.80;95.50;;;;;;5046287;28;20032;-65
2022/04/29 13:15:41;;;;;;;0.80;0.30;;;14.60;95.00;;;;;;5040147;28;20284;-65
2022/04/29 13:18:08;;;;;;;1.17;0.38;;;14.70;95.30;;;;;;5051969;28;20025;-65
2022/04/29 13:20:34;;;;;;;1.15;0.30;;;14.70;92.00;;;;;;5052423;28;20419;-64
2022/04/29 13:22:59;;;;;;;0.95;0.35;;;15.10;98.20;;;;;;5040689;28;20028;-65
2022/04/29 13:25:25;;;;;;;0.68;0.30;;;14.60;90.90;;;;;;5057116;28;20036;-65
2022/04/29 13:27:51;;;;;;;0.47;0.20;;;14.60;94.70;;;;;;5049127;28;20507;-65
2022/04/29 13:30:17;;;;;;;0.77;0.28;;;14.70;88.50;;;;;;5050152;28;20025;-64
2022/04/29 13:32:43;;;;;;;0.47;0.20;;;15.00;92.90;;;;;;5041529;28;20659;-65
2022/04/29 13:35:09;;;;;;;0.55;0.20;;;15.40;94.80;;;;;;5044807;28;20079;-65
2022/04/29 13:37:38;;;;;;;0.17;0.10;;;15.50;79.70;;;;;;5048652;28;20025;-65
2022/04/29 13:40:06;;;;;;;0.40;0.30;;;15.50;77.40;;;;;;5050133;28;20039;-65